WWP weather

Whale Pass Seaplane Float Harbor Facility
Whale Pass, Alaska, United States

Public forecast

Using degrees Fahrenheit for public forecast. Weather courtesy of forecast.io.

METAR (pilot weather report)

Closest report is Klawock Airport, 32.3 nm (59.8 km) S. Retrieved 2019/07/20 07:53 UTC (40 minutes ago):

PAKW 200753Z AUTO 00000KT 10SM CLR 11/11 A3015 RMK SLP210 T01110111 TSNO VIA AUTODIAL

TAF (pilot weather forecast)

Closest forecast is Klawock Airport, 32.3 nm (59.8 km) S. Retrieved 2019/07/20 06:27 UTC (2 hours ago):

TAF PAKW 200525Z 2006/2106 21005KT P6SM FEW015 SCT025 OVC035 FM200900 VRB03KT P6SM OVC015 FM201800 23005KT P6SM SCT015 BKN030 AMD LTD TO CLD VIS AND WIND